sensor_id;sensor_type;location;lat;lon;timestamp;P1;durP1;ratioP1;P2;durP2;ratioP2
80104;SDS011;69865;47.648;19.030;2024-01-07T00:00:30;15.63;;;15.63;;
80104;SDS011;69865;47.648;19.030;2024-01-07T00:01:03;17.10;;;16.83;;
80104;SDS011;69865;47.648;19.030;2024-01-07T00:01:35;16.67;;;16.33;;
80104;SDS011;69865;47.648;19.030;2024-01-07T00:02:10;16.87;;;16.53;;
80104;SDS011;69865;47.648;19.030;2024-01-07T00:02:45;16.47;;;16.13;;
80104;SDS011;69865;47.648;19.030;2024-01-07T00:03:17;17.17;;;16.97;;
80104;SDS011;69865;47.648;19.030;2024-01-07T00:03:50;18.13;;;17.73;;
80104;SDS011;69865;47.648;19.030;2024-01-07T00:04:23;16.83;;;16.30;;
80104;SDS011;69865;47.648;19.030;2024-01-07T00:04:55;17.67;;;17.07;;
80104;SDS011;69865;47.648;19.030;2024-01-07T00:05:28;17.17;;;17.07;;
80104;SDS011;69865;47.648;19.030;2024-01-07T00:06:04;16.17;;;15.97;;
80104;SDS011;69865;47.648;19.030;2024-01-07T00:06:36;16.70;;;16.67;;
80104;SDS011;69865;47.648;19.030;2024-01-07T00:07:09;16.13;;;15.87;;
80104;SDS011;69865;47.648;19.030;2024-01-07T00:07:41;16.57;;;16.33;;
80104;SDS011;69865;47.648;19.030;2024-01-07T00:08:13;16.13;;;15.70;;
80104;SDS011;69865;47.648;19.030;2024-01-07T00:08:45;17.37;;;16.87;;
80104;SDS011;69865;47.648;19.030;2024-01-07T00:09:17;16.70;;;16.23;;
80104;SDS011;69865;47.648;19.030;2024-01-07T00:09:49;16.10;;;15.67;;
80104;SDS011;69865;47.648;19.030;2024-01-07T00:10:21;16.17;;;15.73;;
80104;SDS011;69865;47.648;19.030;2024-01-07T00:10:53;16.13;;;15.87;;
80104;SDS011;69865;47.648;19.030;2024-01-07T00:11:26;17.13;;;16.77;;
80104;SDS011;69865;47.648;19.030;2024-01-07T00:11:58;17.43;;;17.30;;
80104;SDS011;69865;47.648;19.030;2024-01-07T00:12:30;16.60;;;16.60;;
80104;SDS011;69865;47.648;19.030;2024-01-07T00:13:03;16.70;;;16.60;;
80104;SDS011;69865;47.648;19.030;2024-01-07T00:13:35;16.67;;;16.27;;
80104;SDS011;69865;47.648;19.030;2024-01-07T00:14:08;17.07;;;16.47;;
80104;SDS011;69865;47.648;19.030;2024-01-07T00:14:40;17.23;;;16.63;;
80104;SDS011;69865;47.648;19.030;2024-01-07T00:15:12;16.37;;;15.83;;
80104;SDS011;69865;47.648;19.030;2024-01-07T00:15:44;17.07;;;16.60;;
80104;SDS011;69865;47.648;19.030;2024-01-07T00:16:16;17.83;;;17.37;;
80104;SDS011;69865;47.648;19.030;2024-01-07T00:16:48;16.87;;;16.60;;
80104;SDS011;69865;47.648;19.030;2024-01-07T00:17:20;16.23;;;16.07;;
80104;SDS011;69865;47.648;19.030;2024-01-07T00:17:52;17.17;;;16.87;;
80104;SDS011;69865;47.648;19.030;2024-01-07T00:18:25;17.33;;;16.87;;
80104;SDS011;69865;47.648;19.030;2024-01-07T00:18:57;16.93;;;16.67;;
80104;SDS011;69865;47.648;19.030;2024-01-07T00:19:29;15.60;;;15.57;;
80104;SDS011;69865;47.648;19.030;2024-01-07T00:20:01;17.53;;;17.13;;
80104;SDS011;69865;47.648;19.030;2024-01-07T00:20:35;17.73;;;17.37;;
80104;SDS011;69865;47.648;19.030;2024-01-07T00:21:07;16.80;;;16.80;;
80104;SDS011;69865;47.648;19.030;2024-01-07T00:21:39;16.27;;;16.13;;
80104;SDS011;69865;47.648;19.030;2024-01-07T00:22:11;16.90;;;16.70;;
80104;SDS011;69865;47.648;19.030;2024-01-07T00:22:43;16.87;;;16.70;;
80104;SDS011;69865;47.648;19.030;2024-01-07T00:23:15;16.70;;;16.53;;
80104;SDS011;69865;47.648;19.030;2024-01-07T00:23:47;16.13;;;15.77;;
80104;SDS011;69865;47.648;19.030;2024-01-07T00:24:19;16.40;;;15.97;;
80104;SDS011;69865;47.648;19.030;2024-01-07T00:24:51;16.80;;;16.33;;
80104;SDS011;69865;47.648;19.030;2024-01-07T00:25:24;16.40;;;15.90;;
80104;SDS011;69865;47.648;19.030;2024-01-07T00:25:56;16.80;;;16.37;;
80104;SDS011;69865;47.648;19.030;2024-01-07T00:26:28;17.50;;;17.13;;
80104;SDS011;69865;47.648;19.030;2024-01-07T00:27:00;17.43;;;17.07;;
80104;SDS011;69865;47.648;19.030;2024-01-07T00:27:32;17.70;;;17.20;;
80104;SDS011;69865;47.648;19.030;2024-01-07T00:28:04;17.00;;;16.37;;
80104;SDS011;69865;47.648;19.030;2024-01-07T00:28:43;17.17;;;16.57;;
80104;SDS011;69865;47.648;19.030;2024-01-07T00:29:15;17.50;;;16.90;;
80104;SDS011;69865;47.648;19.030;2024-01-07T00:29:47;17.27;;;16.73;;
80104;SDS011;69865;47.648;19.030;2024-01-07T00:30:19;16.20;;;15.70;;
80104;SDS011;69865;47.648;19.030;2024-01-07T00:30:51;16.03;;;15.70;;
80104;SDS011;69865;47.648;19.030;2024-01-07T00:31:23;16.23;;;16.13;;
80104;SDS011;69865;47.648;19.030;2024-01-07T00:31:55;15.43;;;15.23;;
80104;SDS011;69865;47.648;19.030;2024-01-07T00:32:30;17.17;;;16.73;;
80104;SDS011;69865;47.648;19.030;2024-01-07T00:33:02;16.77;;;16.37;;
80104;SDS011;69865;47.648;19.030;2024-01-07T00:33:34;17.53;;;17.13;;
80104;SDS011;69865;47.648;19.030;2024-01-07T00:34:07;17.83;;;17.33;;
80104;SDS011;69865;47.648;19.030;2024-01-07T00:34:39;17.17;;;16.63;;
80104;SDS011;69865;47.648;19.030;2024-01-07T00:35:11;17.30;;;16.73;;
80104;SDS011;69865;47.648;19.030;2024-01-07T00:35:45;16.73;;;16.37;;
80104;SDS011;69865;47.648;19.030;2024-01-07T00:36:17;16.57;;;16.27;;
80104;SDS011;69865;47.648;19.030;2024-01-07T00:36:49;15.80;;;15.73;;
80104;SDS011;69865;47.648;19.030;2024-01-07T00:37:21;16.90;;;16.63;;
80104;SDS011;69865;47.648;19.030;2024-01-07T00:37:53;16.47;;;16.03;;
80104;SDS011;69865;47.648;19.030;2024-01-07T00:38:25;16.50;;;16.43;;
80104;SDS011;69865;47.648;19.030;2024-01-07T00:38:57;16.13;;;15.83;;
80104;SDS011;69865;47.648;19.030;2024-01-07T00:39:29;16.93;;;16.50;;
80104;SDS011;69865;47.648;19.030;2024-01-07T00:40:02;17.33;;;16.90;;
80104;SDS011;69865;47.648;19.030;2024-01-07T00:40:34;16.13;;;16.00;;
80104;SDS011;69865;47.648;19.030;2024-01-07T00:41:06;17.40;;;17.00;;
80104;SDS011;69865;47.648;19.030;2024-01-07T00:41:38;17.23;;;16.73;;
80104;SDS011;69865;47.648;19.030;2024-01-07T00:42:10;16.97;;;16.40;;
80104;SDS011;69865;47.648;19.030;2024-01-07T00:42:42;17.63;;;17.03;;
80104;SDS011;69865;47.648;19.030;2024-01-07T00:43:14;16.63;;;16.20;;
80104;SDS011;69865;47.648;19.030;2024-01-07T00:43:46;16.80;;;16.40;;
80104;SDS011;69865;47.648;19.030;2024-01-07T00:44:18;16.70;;;16.23;;
80104;SDS011;69865;47.648;19.030;2024-01-07T00:44:50;16.27;;;16.23;;
80104;SDS011;69865;47.648;19.030;2024-01-07T00:45:22;15.87;;;15.70;;
80104;SDS011;69865;47.648;19.030;2024-01-07T00:45:54;16.70;;;16.37;;
80104;SDS011;69865;47.648;19.030;2024-01-07T00:46:26;16.57;;;16.33;;
80104;SDS011;69865;47.648;19.030;2024-01-07T00:46:59;15.77;;;15.60;;
80104;SDS011;69865;47.648;19.030;2024-01-07T00:47:31;16.63;;;16.23;;
80104;SDS011;69865;47.648;19.030;2024-01-07T00:48:03;16.47;;;16.07;;
80104;SDS011;69865;47.648;19.030;2024-01-07T00:48:36;16.13;;;15.70;;
80104;SDS011;69865;47.648;19.030;2024-01-07T00:49:08;16.97;;;16.30;;
80104;SDS011;69865;47.648;19.030;2024-01-07T00:49:40;16.87;;;16.13;;
80104;SDS011;69865;47.648;19.030;2024-01-07T00:50:13;16.80;;;16.17;;
80104;SDS011;69865;47.648;19.030;2024-01-07T00:50:46;16.07;;;15.60;;
80104;SDS011;69865;47.648;19.030;2024-01-07T00:51:18;16.20;;;15.87;;
80104;SDS011;69865;47.648;19.030;2024-01-07T00:51:50;16.33;;;15.93;;
80104;SDS011;69865;47.648;19.030;2024-01-07T00:52:23;17.17;;;16.77;;
80104;SDS011;69865;47.648;19.030;2024-01-07T00:52:55;15.77;;;15.50;;
80104;SDS011;69865;47.648;19.030;2024-01-07T00:53:27;16.07;;;15.67;;
80104;SDS011;69865;47.648;19.030;2024-01-07T00:53:59;16.27;;;15.80;;
80104;SDS011;69865;47.648;19.030;2024-01-07T00:54:32;16.43;;;16.27;;
80104;SDS011;69865;47.648;19.030;2024-01-07T00:55:04;17.33;;;16.90;;
80104;SDS011;69865;47.648;19.030;2024-01-07T00:55:37;16.97;;;16.80;;
80104;SDS011;69865;47.648;19.030;2024-01-07T00:56:09;15.07;;;15.07;;
80104;SDS011;69865;47.648;19.030;2024-01-07T00:56:41;15.77;;;15.57;;
80104;SDS011;69865;47.648;19.030;2024-01-07T00:57:14;16.23;;;15.83;;
80104;SDS011;69865;47.648;19.030;2024-01-07T00:57:46;16.27;;;16.10;;
80104;SDS011;69865;47.648;19.030;2024-01-07T00:58:18;15.67;;;15.40;;
80104;SDS011;69865;47.648;19.030;2024-01-07T00:58:50;16.63;;;16.23;;
80104;SDS011;69865;47.648;19.030;2024-01-07T00:59:22;15.90;;;15.67;;
80104;SDS011;69865;47.648;19.030;2024-01-07T00:59:54;16.33;;;16.33;;
80104;SDS011;69865;47.648;19.030;2024-01-07T01:00:26;15.87;;;15.83;;
80104;SDS011;69865;47.648;19.030;2024-01-07T01:00:58;16.23;;;16.13;;
80104;SDS011;69865;47.648;19.030;2024-01-07T01:01:30;16.30;;;15.93;;
80104;SDS011;69865;47.648;19.030;2024-01-07T01:02:03;17.27;;;16.77;;
80104;SDS011;69865;47.648;19.030;2024-01-07T01:02:36;15.77;;;15.30;;
80104;SDS011;69865;47.648;19.030;2024-01-07T01:03:09;16.33;;;15.83;;
80104;SDS011;69865;47.648;19.030;2024-01-07T01:03:41;16.73;;;16.23;;
80104;SDS011;69865;47.648;19.030;2024-01-07T01:04:13;16.80;;;16.37;;
80104;SDS011;69865;47.648;19.030;2024-01-07T01:04:45;15.80;;;15.73;;
80104;SDS011;69865;47.648;19.030;2024-01-07T01:05:18;15.20;;;14.83;;
80104;SDS011;69865;47.648;19.030;2024-01-07T01:05:51;16.03;;;15.63;;
80104;SDS011;69865;47.648;19.030;2024-01-07T01:06:23;16.37;;;15.97;;
80104;SDS011;69865;47.648;19.030;2024-01-07T01:06:56;15.87;;;15.47;;
80104;SDS011;69865;47.648;19.030;2024-01-07T01:07:28;16.60;;;16.07;;
80104;SDS011;69865;47.648;19.030;2024-01-07T01:08:00;17.33;;;16.67;;
80104;SDS011;69865;47.648;19.030;2024-01-07T01:08:32;16.23;;;15.73;;
80104;SDS011;69865;47.648;19.030;2024-01-07T01:09:04;14.90;;;14.50;;
80104;SDS011;69865;47.648;19.030;2024-01-07T01:09:36;14.90;;;14.47;;
80104;SDS011;69865;47.648;19.030;2024-01-07T01:10:09;16.50;;;15.93;;
80104;SDS011;69865;47.648;19.030;2024-01-07T01:10:41;15.80;;;15.37;;
80104;SDS011;69865;47.648;19.030;2024-01-07T01:11:13;15.87;;;15.40;;
80104;SDS011;69865;47.648;19.030;2024-01-07T01:11:46;16.60;;;16.17;;
80104;SDS011;69865;47.648;19.030;2024-01-07T01:12:18;15.97;;;15.57;;
80104;SDS011;69865;47.648;19.030;2024-01-07T01:12:50;16.00;;;15.70;;
80104;SDS011;69865;47.648;19.030;2024-01-07T01:13:22;15.97;;;15.57;;
80104;SDS011;69865;47.648;19.030;2024-01-07T01:13:54;15.47;;;15.33;;
80104;SDS011;69865;47.648;19.030;2024-01-07T01:14:26;15.87;;;15.57;;
80104;SDS011;69865;47.648;19.030;2024-01-07T01:14:59;16.33;;;15.77;;
80104;SDS011;69865;47.648;19.030;2024-01-07T01:15:31;16.27;;;15.83;;
80104;SDS011;69865;47.648;19.030;2024-01-07T01:16:03;16.00;;;15.97;;
80104;SDS011;69865;47.648;19.030;2024-01-07T01:16:35;15.77;;;15.77;;
80104;SDS011;69865;47.648;19.030;2024-01-07T01:17:08;15.43;;;15.23;;
80104;SDS011;69865;47.648;19.030;2024-01-07T01:17:40;15.73;;;15.30;;
80104;SDS011;69865;47.648;19.030;2024-01-07T01:18:12;17.13;;;16.50;;
80104;SDS011;69865;47.648;19.030;2024-01-07T01:18:44;16.20;;;15.70;;
80104;SDS011;69865;47.648;19.030;2024-01-07T01:19:17;16.47;;;15.93;;
80104;SDS011;69865;47.648;19.030;2024-01-07T01:19:49;17.47;;;16.83;;
80104;SDS011;69865;47.648;19.030;2024-01-07T01:20:21;17.77;;;17.07;;
80104;SDS011;69865;47.648;19.030;2024-01-07T01:20:55;16.63;;;16.20;;
80104;SDS011;69865;47.648;19.030;2024-01-07T01:21:27;16.40;;;16.10;;
80104;SDS011;69865;47.648;19.030;2024-01-07T01:21:59;15.87;;;15.70;;
80104;SDS011;69865;47.648;19.030;2024-01-07T01:22:31;16.53;;;16.30;;
80104;SDS011;69865;47.648;19.030;2024-01-07T01:23:03;16.33;;;16.00;;
80104;SDS011;69865;47.648;19.030;2024-01-07T01:23:35;15.17;;;15.10;;
80104;SDS011;69865;47.648;19.030;2024-01-07T01:24:08;16.27;;;16.03;;
80104;SDS011;69865;47.648;19.030;2024-01-07T01:24:40;16.03;;;16.03;;
80104;SDS011;69865;47.648;19.030;2024-01-07T01:25:12;16.50;;;16.47;;
80104;SDS011;69865;47.648;19.030;2024-01-07T01:25:44;15.93;;;15.70;;
80104;SDS011;69865;47.648;19.030;2024-01-07T01:26:16;15.20;;;15.10;;
80104;SDS011;69865;47.648;19.030;2024-01-07T01:26:48;16.03;;;15.80;;
80104;SDS011;69865;47.648;19.030;2024-01-07T01:27:20;16.47;;;16.07;;
80104;SDS011;69865;47.648;19.030;2024-01-07T01:27:52;17.03;;;16.57;;
80104;SDS011;69865;47.648;19.030;2024-01-07T01:28:24;16.90;;;16.33;;
80104;SDS011;69865;47.648;19.030;2024-01-07T01:28:56;17.73;;;17.17;;
80104;SDS011;69865;47.648;19.030;2024-01-07T01:29:29;15.60;;;15.30;;
80104;SDS011;69865;47.648;19.030;2024-01-07T01:30:01;15.13;;;15.13;;
80104;SDS011;69865;47.648;19.030;2024-01-07T01:30:33;15.23;;;14.90;;
80104;SDS011;69865;47.648;19.030;2024-01-07T01:31:05;16.03;;;15.70;;
80104;SDS011;69865;47.648;19.030;2024-01-07T01:31:37;15.43;;;15.17;;
80104;SDS011;69865;47.648;19.030;2024-01-07T01:32:09;15.37;;;15.00;;
80104;SDS011;69865;47.648;19.030;2024-01-07T01:32:41;16.23;;;15.83;;
80104;SDS011;69865;47.648;19.030;2024-01-07T01:33:14;15.00;;;14.70;;
80104;SDS011;69865;47.648;19.030;2024-01-07T01:33:46;15.20;;;14.90;;
80104;SDS011;69865;47.648;19.030;2024-01-07T01:34:19;15.63;;;15.47;;
80104;SDS011;69865;47.648;19.030;2024-01-07T01:34:51;14.70;;;14.67;;
80104;SDS011;69865;47.648;19.030;2024-01-07T01:35:23;15.27;;;15.17;;
80104;SDS011;69865;47.648;19.030;2024-01-07T01:35:57;15.43;;;15.40;;
80104;SDS011;69865;47.648;19.030;2024-01-07T01:36:35;16.27;;;16.17;;
80104;SDS011;69865;47.648;19.030;2024-01-07T01:37:08;16.57;;;16.13;;
80104;SDS011;69865;47.648;19.030;2024-01-07T01:37:40;15.80;;;15.33;;
80104;SDS011;69865;47.648;19.030;2024-01-07T01:38:12;14.97;;;14.83;;
80104;SDS011;69865;47.648;19.030;2024-01-07T01:38:45;16.07;;;15.80;;
80104;SDS011;69865;47.648;19.030;2024-01-07T01:39:17;15.90;;;15.63;;
80104;SDS011;69865;47.648;19.030;2024-01-07T01:39:49;15.77;;;15.40;;
80104;SDS011;69865;47.648;19.030;2024-01-07T01:40:21;14.87;;;14.43;;
80104;SDS011;69865;47.648;19.030;2024-01-07T01:40:53;15.27;;;14.80;;
80104;SDS011;69865;47.648;19.030;2024-01-07T01:41:25;15.70;;;15.23;;
80104;SDS011;69865;47.648;19.030;2024-01-07T01:41:57;16.67;;;16.17;;
80104;SDS011;69865;47.648;19.030;2024-01-07T01:42:29;16.17;;;15.67;;
80104;SDS011;69865;47.648;19.030;2024-01-07T01:43:01;15.50;;;14.97;;
80104;SDS011;69865;47.648;19.030;2024-01-07T01:43:34;15.67;;;15.07;;
80104;SDS011;69865;47.648;19.030;2024-01-07T01:44:06;15.27;;;14.67;;
80104;SDS011;69865;47.648;19.030;2024-01-07T01:44:45;15.47;;;14.97;;
80104;SDS011;69865;47.648;19.030;2024-01-07T01:45:18;16.63;;;16.17;;
80104;SDS011;69865;47.648;19.030;2024-01-07T01:45:50;15.27;;;15.10;;
80104;SDS011;69865;47.648;19.030;2024-01-07T01:46:22;14.70;;;14.40;;
80104;SDS011;69865;47.648;19.030;2024-01-07T01:46:55;15.27;;;14.93;;
80104;SDS011;69865;47.648;19.030;2024-01-07T01:47:27;15.23;;;15.00;;
80104;SDS011;69865;47.648;19.030;2024-01-07T01:48:01;15.53;;;15.07;;
80104;SDS011;69865;47.648;19.030;2024-01-07T01:48:34;16.47;;;15.80;;
80104;SDS011;69865;47.648;19.030;2024-01-07T01:49:07;16.47;;;15.77;;
80104;SDS011;69865;47.648;19.030;2024-01-07T01:49:40;15.87;;;15.20;;
80104;SDS011;69865;47.648;19.030;2024-01-07T01:50:13;15.77;;;15.20;;
80104;SDS011;69865;47.648;19.030;2024-01-07T01:50:46;15.10;;;14.70;;
80104;SDS011;69865;47.648;19.030;2024-01-07T01:51:20;14.63;;;14.60;;
80104;SDS011;69865;47.648;19.030;2024-01-07T01:51:52;15.57;;;15.27;;
80104;SDS011;69865;47.648;19.030;2024-01-07T01:52:25;15.80;;;15.40;;
80104;SDS011;69865;47.648;19.030;2024-01-07T01:52:58;16.87;;;16.30;;
80104;SDS011;69865;47.648;19.030;2024-01-07T01:53:31;17.47;;;16.97;;
80104;SDS011;69865;47.648;19.030;2024-01-07T01:54:04;16.33;;;15.87;;
80104;SDS011;69865;47.648;19.030;2024-01-07T01:54:37;16.73;;;16.23;;
80104;SDS011;69865;47.648;19.030;2024-01-07T01:55:10;16.57;;;16.10;;
80104;SDS011;69865;47.648;19.030;2024-01-07T01:55:43;15.57;;;15.23;;
80104;SDS011;69865;47.648;19.030;2024-01-07T01:56:16;15.40;;;15.10;;
80104;SDS011;69865;47.648;19.030;2024-01-07T01:56:49;15.23;;;14.73;;
80104;SDS011;69865;47.648;19.030;2024-01-07T01:57:22;16.10;;;15.60;;
80104;SDS011;69865;47.648;19.030;2024-01-07T01:58:00;15.17;;;14.77;;
80104;SDS011;69865;47.648;19.030;2024-01-07T01:58:34;15.87;;;15.43;;
80104;SDS011;69865;47.648;19.030;2024-01-07T01:59:06;15.73;;;15.17;;
80104;SDS011;69865;47.648;19.030;2024-01-07T01:59:40;14.73;;;14.23;;
80104;SDS011;69865;47.648;19.030;2024-01-07T02:00:14;14.50;;;14.27;;
80104;SDS011;69865;47.648;19.030;2024-01-07T02:00:47;15.40;;;15.30;;
80104;SDS011;69865;47.648;19.030;2024-01-07T02:01:19;14.93;;;14.80;;
80104;SDS011;69865;47.648;19.030;2024-01-07T02:01:51;15.47;;;15.40;;
80104;SDS011;69865;47.648;19.030;2024-01-07T02:02:24;16.03;;;15.60;;
80104;SDS011;69865;47.648;19.030;2024-01-07T02:02:56;16.70;;;16.13;;
80104;SDS011;69865;47.648;19.030;2024-01-07T02:03:28;16.37;;;15.87;;
80104;SDS011;69865;47.648;19.030;2024-01-07T02:04:00;15.70;;;15.27;;
80104;SDS011;69865;47.648;19.030;2024-01-07T02:04:32;14.60;;;14.47;;
80104;SDS011;69865;47.648;19.030;2024-01-07T02:05:05;16.23;;;15.87;;
80104;SDS011;69865;47.648;19.030;2024-01-07T02:05:37;16.40;;;15.83;;
80104;SDS011;69865;47.648;19.030;2024-01-07T02:06:10;16.03;;;15.50;;
80104;SDS011;69865;47.648;19.030;2024-01-07T02:06:43;16.83;;;16.37;;
80104;SDS011;69865;47.648;19.030;2024-01-07T02:07:17;15.90;;;15.77;;
80104;SDS011;69865;47.648;19.030;2024-01-07T02:07:49;14.93;;;14.90;;
80104;SDS011;69865;47.648;19.030;2024-01-07T02:08:21;15.43;;;15.17;;
80104;SDS011;69865;47.648;19.030;2024-01-07T02:08:54;16.30;;;15.87;;
80104;SDS011;69865;47.648;19.030;2024-01-07T02:09:27;15.43;;;15.03;;
80104;SDS011;69865;47.648;19.030;2024-01-07T02:09:59;14.87;;;14.50;;
80104;SDS011;69865;47.648;19.030;2024-01-07T02:10:31;14.93;;;14.53;;
80104;SDS011;69865;47.648;19.030;2024-01-07T02:12:00;16.07;;;15.63;;
80104;SDS011;69865;47.648;19.030;2024-01-07T02:12:33;16.53;;;16.10;;
80104;SDS011;69865;47.648;19.030;2024-01-07T02:13:05;16.57;;;16.17;;
80104;SDS011;69865;47.648;19.030;2024-01-07T02:13:38;15.87;;;15.53;;
80104;SDS011;69865;47.648;19.030;2024-01-07T02:14:10;15.63;;;15.27;;
80104;SDS011;69865;47.648;19.030;2024-01-07T02:14:45;17.13;;;16.63;;
80104;SDS011;69865;47.648;19.030;2024-01-07T02:15:17;15.77;;;15.50;;
80104;SDS011;69865;47.648;19.030;2024-01-07T02:15:49;14.93;;;14.67;;
80104;SDS011;69865;47.648;19.030;2024-01-07T02:16:21;15.30;;;14.97;;
80104;SDS011;69865;47.648;19.030;2024-01-07T02:16:53;16.20;;;15.67;;
80104;SDS011;69865;47.648;19.030;2024-01-07T02:17:26;16.23;;;15.63;;
80104;SDS011;69865;47.648;19.030;2024-01-07T02:17:58;16.90;;;16.33;;
80104;SDS011;69865;47.648;19.030;2024-01-07T02:18:31;16.77;;;16.23;;
80104;SDS011;69865;47.648;19.030;2024-01-07T02:19:06;16.70;;;16.13;;
80104;SDS011;69865;47.648;19.030;2024-01-07T02:19:39;16.97;;;16.33;;
80104;SDS011;69865;47.648;19.030;2024-01-07T02:20:11;16.40;;;15.83;;
80104;SDS011;69865;47.648;19.030;2024-01-07T02:20:43;16.57;;;16.07;;
80104;SDS011;69865;47.648;19.030;2024-01-07T02:21:15;16.50;;;16.07;;
80104;SDS011;69865;47.648;19.030;2024-01-07T02:21:49;15.80;;;15.60;;
80104;SDS011;69865;47.648;19.030;2024-01-07T02:22:22;15.90;;;15.60;;
80104;SDS011;69865;47.648;19.030;2024-01-07T02:22:54;15.73;;;15.47;;
80104;SDS011;69865;47.648;19.030;2024-01-07T02:23:26;16.73;;;16.37;;
80104;SDS011;69865;47.648;19.030;2024-01-07T02:23:58;16.63;;;16.23;;
80104;SDS011;69865;47.648;19.030;2024-01-07T02:24:36;15.83;;;15.37;;
80104;SDS011;69865;47.648;19.030;2024-01-07T02:25:08;16.67;;;16.10;;
80104;SDS011;69865;47.648;19.030;2024-01-07T02:25:40;16.67;;;16.13;;
80104;SDS011;69865;47.648;19.030;2024-01-07T02:26:12;16.40;;;16.20;;
80104;SDS011;69865;47.648;19.030;2024-01-07T02:26:44;16.77;;;16.73;;
80104;SDS011;69865;47.648;19.030;2024-01-07T02:27:17;17.20;;;17.00;;
80104;SDS011;69865;47.648;19.030;2024-01-07T02:27:49;16.80;;;16.40;;
80104;SDS011;69865;47.648;19.030;2024-01-07T02:28:21;17.23;;;16.73;;
80104;SDS011;69865;47.648;19.030;2024-01-07T02:28:53;16.53;;;16.07;;
80104;SDS011;69865;47.648;19.030;2024-01-07T02:29:25;17.37;;;16.80;;
80104;SDS011;69865;47.648;19.030;2024-01-07T02:29:57;16.97;;;16.43;;
80104;SDS011;69865;47.648;19.030;2024-01-07T02:30:29;16.07;;;15.97;;
80104;SDS011;69865;47.648;19.030;2024-01-07T02:31:01;15.73;;;15.40;;
80104;SDS011;69865;47.648;19.030;2024-01-07T02:31:33;15.50;;;15.10;;
80104;SDS011;69865;47.648;19.030;2024-01-07T02:32:05;17.27;;;16.70;;
80104;SDS011;69865;47.648;19.030;2024-01-07T02:32:38;16.67;;;16.13;;
80104;SDS011;69865;47.648;19.030;2024-01-07T02:33:10;16.67;;;16.00;;
80104;SDS011;69865;47.648;19.030;2024-01-07T02:33:42;16.50;;;15.80;;
80104;SDS011;69865;47.648;19.030;2024-01-07T02:34:14;17.33;;;16.73;;
80104;SDS011;69865;47.648;19.030;2024-01-07T02:34:47;16.17;;;15.70;;
80104;SDS011;69865;47.648;19.030;2024-01-07T02:35:19;15.77;;;15.27;;
80104;SDS011;69865;47.648;19.030;2024-01-07T02:35:51;15.60;;;15.27;;
80104;SDS011;69865;47.648;19.030;2024-01-07T02:36:23;16.60;;;16.10;;
80104;SDS011;69865;47.648;19.030;2024-01-07T02:36:55;16.40;;;15.93;;
80104;SDS011;69865;47.648;19.030;2024-01-07T02:37:27;16.53;;;16.03;;
80104;SDS011;69865;47.648;19.030;2024-01-07T02:37:59;17.10;;;16.53;;
80104;SDS011;69865;47.648;19.030;2024-01-07T02:38:31;17.07;;;16.50;;
80104;SDS011;69865;47.648;19.030;2024-01-07T02:39:05;16.50;;;16.00;;
80104;SDS011;69865;47.648;19.030;2024-01-07T02:39:37;16.23;;;15.77;;
80104;SDS011;69865;47.648;19.030;2024-01-07T02:40:09;16.03;;;15.60;;
80104;SDS011;69865;47.648;19.030;2024-01-07T02:40:42;15.40;;;15.03;;
80104;SDS011;69865;47.648;19.030;2024-01-07T02:41:14;16.23;;;15.80;;
80104;SDS011;69865;47.648;19.030;2024-01-07T02:41:46;16.70;;;16.23;;
80104;SDS011;69865;47.648;19.030;2024-01-07T02:42:19;16.53;;;16.03;;
80104;SDS011;69865;47.648;19.030;2024-01-07T02:42:51;17.40;;;16.83;;
80104;SDS011;69865;47.648;19.030;2024-01-07T02:43:23;17.13;;;16.50;;
80104;SDS011;69865;47.648;19.030;2024-01-07T02:43:55;17.30;;;16.67;;
80104;SDS011;69865;47.648;19.030;2024-01-07T02:44:27;17.57;;;16.87;;
80104;SDS011;69865;47.648;19.030;2024-01-07T02:44:59;17.37;;;16.87;;
80104;SDS011;69865;47.648;19.030;2024-01-07T02:45:31;17.90;;;17.37;;
80104;SDS011;69865;47.648;19.030;2024-01-07T02:46:03;17.10;;;16.57;;
80104;SDS011;69865;47.648;19.030;2024-01-07T02:46:36;17.27;;;16.77;;
80104;SDS011;69865;47.648;19.030;2024-01-07T02:47:08;17.63;;;17.07;;
80104;SDS011;69865;47.648;19.030;2024-01-07T02:47:40;18.07;;;17.37;;
80104;SDS011;69865;47.648;19.030;2024-01-07T02:48:12;18.00;;;17.17;;
80104;SDS011;69865;47.648;19.030;2024-01-07T02:48:44;17.97;;;17.20;;
80104;SDS011;69865;47.648;19.030;2024-01-07T02:49:16;17.57;;;16.83;;
80104;SDS011;69865;47.648;19.030;2024-01-07T02:49:48;17.90;;;17.23;;
80104;SDS011;69865;47.648;19.030;2024-01-07T02:50:20;18.03;;;17.50;;
80104;SDS011;69865;47.648;19.030;2024-01-07T02:50:53;17.63;;;17.20;;
80104;SDS011;69865;47.648;19.030;2024-01-07T02:51:25;17.97;;;17.53;;
80104;SDS011;69865;47.648;19.030;2024-01-07T02:51:57;18.13;;;17.67;;
80104;SDS011;69865;47.648;19.030;2024-01-07T02:52:29;19.17;;;18.50;;
80104;SDS011;69865;47.648;19.030;2024-01-07T02:53:01;17.67;;;17.07;;
80104;SDS011;69865;47.648;19.030;2024-01-07T02:53:33;18.23;;;17.63;;
80104;SDS011;69865;47.648;19.030;2024-01-07T02:54:06;19.03;;;18.33;;
80104;SDS011;69865;47.648;19.030;2024-01-07T02:54:39;19.30;;;18.40;;
80104;SDS011;69865;47.648;19.030;2024-01-07T02:55:11;17.73;;;16.87;;
80104;SDS011;69865;47.648;19.030;2024-01-07T02:55:43;18.30;;;17.53;;
80104;SDS011;69865;47.648;19.030;2024-01-07T02:56:15;17.57;;;17.00;;
80104;SDS011;69865;47.648;19.030;2024-01-07T02:56:47;17.77;;;17.13;;
80104;SDS011;69865;47.648;19.030;2024-01-07T02:57:19;17.57;;;16.87;;
80104;SDS011;69865;47.648;19.030;2024-01-07T02:57:51;18.40;;;17.80;;
80104;SDS011;69865;47.648;19.030;2024-01-07T02:58:23;17.40;;;16.87;;
80104;SDS011;69865;47.648;19.030;2024-01-07T02:58:55;17.73;;;17.27;;
80104;SDS011;69865;47.648;19.030;2024-01-07T02:59:27;17.20;;;16.70;;
80104;SDS011;69865;47.648;19.030;2024-01-07T03:00:00;18.00;;;17.43;;
80104;SDS011;69865;47.648;19.030;2024-01-07T03:00:32;17.00;;;16.40;;
80104;SDS011;69865;47.648;19.030;2024-01-07T03:01:05;18.00;;;17.33;;
80104;SDS011;69865;47.648;19.030;2024-01-07T03:01:40;17.60;;;17.07;;
80104;SDS011;69865;47.648;19.030;2024-01-07T03:02:12;17.60;;;17.23;;
80104;SDS011;69865;47.648;19.030;2024-01-07T03:02:44;17.43;;;17.17;;
80104;SDS011;69865;47.648;19.030;2024-01-07T03:03:16;16.93;;;16.53;;
80104;SDS011;69865;47.648;19.030;2024-01-07T03:03:48;17.80;;;17.33;;
80104;SDS011;69865;47.648;19.030;2024-01-07T03:04:21;16.47;;;16.10;;
80104;SDS011;69865;47.648;19.030;2024-01-07T03:04:53;16.43;;;16.10;;
80104;SDS011;69865;47.648;19.030;2024-01-07T03:05:25;17.43;;;17.03;;
80104;SDS011;69865;47.648;19.030;2024-01-07T03:05:57;18.00;;;17.57;;
80104;SDS011;69865;47.648;19.030;2024-01-07T03:06:29;17.00;;;16.60;;
80104;SDS011;69865;47.648;19.030;2024-01-07T03:07:02;17.53;;;17.03;;
80104;SDS011;69865;47.648;19.030;2024-01-07T03:07:34;17.57;;;17.10;;
80104;SDS011;69865;47.648;19.030;2024-01-07T03:08:06;16.87;;;16.37;;